Time;durP1;ratioP1;P1;durP2;ratioP2;P2;SDS_P1;SDS_P2;PMS_P1;PMS_P2;Temp;Humidity;BMP_temperature;BMP_pressure;BME280_temperature;BME280_humidity;BME280_pressure;Samples;Min_cycle;Max_cycle;Signal;HPM_P1;HPM_P2
2023/07/27 00:00:26;;;;;;;8.50;4.22;;;19.00;57.00;;;;;;4948862;28;20485;-68
2023/07/27 00:02:53;;;;;;;6.57;4.28;;;19.20;55.80;;;;;;4944614;28;20023;-67
2023/07/27 00:05:20;;;;;;;6.78;4.45;;;19.60;53.20;;;;;;4946585;28;20042;-68
2023/07/27 00:07:48;;;;;;;6.97;4.50;;;19.60;54.30;;;;;;4948259;28;20078;-68
2023/07/27 00:10:15;;;;;;;10.07;4.78;;;19.20;56.30;;;;;;4930590;28;20097;-68
2023/07/27 00:12:43;;;;;;;12.65;5.15;;;19.70;53.30;;;;;;4944891;28;20062;-69
2023/07/27 00:15:10;;;;;;;9.98;4.85;;;19.80;53.70;;;;;;4948149;28;20031;-69
2023/07/27 00:17:38;;;;;;;6.38;4.25;;;19.70;53.70;;;;;;4948270;28;20043;-69
2023/07/27 00:20:06;;;;;;;8.43;5.07;;;19.60;54.40;;;;;;4961621;28;20097;-68
2023/07/27 00:22:33;;;;;;;7.93;4.43;;;19.60;54.80;;;;;;4944876;28;20491;-69
2023/07/27 00:25:01;;;;;;;9.70;4.38;;;20.10;54.00;;;;;;4941430;28;20065;-67
2023/07/27 00:27:28;;;;;;;10.85;4.90;;;19.70;53.60;;;;;;4928408;28;20035;-70
2023/07/27 00:29:55;;;;;;;6.40;3.95;;;20.00;55.30;;;;;;4942908;28;20503;-70
2023/07/27 00:32:23;;;;;;;5.95;3.45;;;20.60;54.80;;;;;;4952013;28;20039;-69
2023/07/27 00:34:53;;;;;;;4.88;3.53;;;21.10;52.70;;;;;;4953321;28;20050;-70
2023/07/27 00:37:20;;;;;;;9.05;3.63;;;21.30;52.80;;;;;;4921625;28;20045;-69
2023/07/27 00:39:48;;;;;;;3.47;2.60;;;21.70;51.50;;;;;;4939909;28;20504;-69
2023/07/27 00:42:15;;;;;;;4.28;3.15;;;22.20;48.70;;;;;;4943380;28;20582;-70
2023/07/27 00:44:43;;;;;;;4.00;2.92;;;22.20;48.50;;;;;;4960760;28;20031;-70
2023/07/27 00:47:10;;;;;;;5.55;2.92;;;21.50;49.70;;;;;;4929525;28;20492;-70
2023/07/27 00:49:38;;;;;;;5.68;3.35;;;21.70;50.50;;;;;;4931018;28;20027;-70
2023/07/27 00:52:07;;;;;;;4.75;2.97;;;21.90;50.00;;;;;;4936580;28;20043;-70
2023/07/27 00:54:35;;;;;;;6.38;2.83;;;22.20;48.80;;;;;;4960364;28;20034;-70
2023/07/27 00:57:03;;;;;;;5.13;3.20;;;22.00;47.90;;;;;;4944210;28;20043;-70
2023/07/27 00:59:30;;;;;;;8.48;2.72;;;21.90;48.90;;;;;;4947344;28;20086;-70
2023/07/27 01:01:58;;;;;;;5.22;3.10;;;22.10;48.90;;;;;;4934633;28;20034;-70
2023/07/27 01:04:25;;;;;;;4.68;2.45;;;22.40;48.80;;;;;;4941006;28;20031;-68
2023/07/27 01:06:53;;;;;;;5.45;2.45;;;22.80;48.40;;;;;;4961242;28;20414;-67
2023/07/27 01:09:20;;;;;;;5.88;2.72;;;22.80;47.90;;;;;;4942741;28;20836;-67
2023/07/27 01:11:54;;;;;;;4.25;2.25;;;23.20;46.80;;;;;;4943282;28;20054;-68
2023/07/27 01:14:26;;;;;;;5.68;3.05;;;23.10;45.40;;;;;;4944338;28;20129;-67
2023/07/27 01:17:06;;;;;;;4.85;2.80;;;23.30;46.70;;;;;;4944314;28;20027;-67
2023/07/27 01:19:55;;;;;;;3.85;2.22;;;23.20;46.40;;;;;;4948245;28;20440;-67
2023/07/27 01:22:31;;;;;;;3.70;2.20;;;23.20;46.40;;;;;;4943353;28;20042;-67
2023/07/27 01:25:46;;;;;;;4.68;2.72;;;23.40;48.10;;;;;;4936243;28;20543;-67
2023/07/27 01:28:31;;;;;;;4.68;3.20;;;23.70;46.20;;;;;;4925923;28;20175;-68
2023/07/27 01:31:13;;;;;;;5.80;3.05;;;23.50;46.50;;;;;;4941179;28;20137;-69
2023/07/27 01:33:53;;;;;;;12.25;3.22;;;23.60;47.10;;;;;;4943684;28;20480;-67
2023/07/27 01:36:26;;;;;;;4.85;2.50;;;23.90;47.70;;;;;;4946275;28;20089;-68
2023/07/27 01:38:58;;;;;;;6.90;2.42;;;23.90;47.20;;;;;;4937527;28;20126;-69
2023/07/27 01:41:28;;;;;;;7.00;2.35;;;23.80;48.80;;;;;;4963634;28;20178;-68
2023/07/27 01:43:57;;;;;;;7.90;2.65;;;23.80;49.70;;;;;;4962176;28;20093;-66
2023/07/27 01:46:26;;;;;;;5.75;2.30;;;23.90;48.20;;;;;;4944763;28;20040;-68
2023/07/27 01:48:56;;;;;;;7.15;1.85;;;23.90;48.60;;;;;;4944578;28;20027;-69
2023/07/27 01:51:26;;;;;;;4.63;2.03;;;23.90;48.90;;;;;;4937224;28;20027;-68
2023/07/27 01:53:55;;;;;;;3.67;1.88;;;23.90;48.80;;;;;;4941916;28;20033;-69
2023/07/27 01:56:24;;;;;;;4.68;2.08;;;23.90;49.10;;;;;;4944205;28;21107;-69
2023/07/27 01:58:53;;;;;;;6.45;2.45;;;24.00;48.10;;;;;;4949416;28;20127;-68
2023/07/27 02:01:21;;;;;;;6.82;2.30;;;24.20;48.40;;;;;;4943730;28;20075;-69
2023/07/27 02:03:50;;;;;;;6.20;2.03;;;24.50;47.40;;;;;;4947693;28;20162;-69
2023/07/27 02:06:17;;;;;;;9.68;2.30;;;24.10;48.00;;;;;;4950747;28;20512;-70
2023/07/27 02:08:45;;;;;;;9.57;2.40;;;24.20;48.40;;;;;;4938231;28;20488;-71
2023/07/27 02:11:16;;;;;;;7.68;2.53;;;23.90;49.20;;;;;;4936691;28;20027;-69
2023/07/27 02:14:06;;;;;;;4.85;2.65;;;23.40;51.40;;;;;;4947071;28;20030;-68
2023/07/27 02:16:57;;;;;;;5.68;3.00;;;23.80;50.10;;;;;;4947298;28;20034;-69
2023/07/27 02:19:31;;;;;;;6.28;2.45;;;23.80;49.80;;;;;;4943102;28;20549;-69
2023/07/27 02:22:02;;;;;;;6.78;3.10;;;23.70;50.20;;;;;;4949399;28;20022;-69
2023/07/27 02:24:31;;;;;;;4.65;2.38;;;23.90;50.70;;;;;;4946311;28;20031;-67
2023/07/27 02:26:58;;;;;;;5.10;2.60;;;23.90;50.10;;;;;;4948817;28;20041;-69
2023/07/27 02:29:26;;;;;;;10.98;2.80;;;23.90;50.40;;;;;;4948244;28;20321;-69
2023/07/27 02:31:53;;;;;;;6.18;2.85;;;24.40;49.50;;;;;;4946641;28;20024;-68
2023/07/27 02:34:21;;;;;;;5.97;2.67;;;24.10;50.20;;;;;;4938738;28;20488;-68
2023/07/27 02:36:48;;;;;;;5.43;3.05;;;23.90;50.00;;;;;;4939028;28;20023;-68
2023/07/27 02:39:15;;;;;;;8.90;3.03;;;23.80;51.10;;;;;;4937990;28;20067;-69
2023/07/27 02:41:43;;;;;;;6.60;3.03;;;23.60;51.10;;;;;;4942910;28;20031;-69
2023/07/27 02:44:10;;;;;;;7.13;3.00;;;23.50;51.50;;;;;;4939482;28;20510;-69
2023/07/27 02:46:37;;;;;;;9.60;3.70;;;23.50;51.20;;;;;;4938638;28;20169;-69
2023/07/27 02:49:05;;;;;;;7.60;2.85;;;23.60;51.40;;;;;;4938172;28;20038;-68
2023/07/27 02:51:32;;;;;;;9.25;2.58;;;23.10;51.70;;;;;;4941951;28;20757;-69
2023/07/27 02:53:59;;;;;;;8.40;3.05;;;23.10;51.90;;;;;;4936913;28;20039;-69
2023/07/27 02:56:27;;;;;;;4.65;2.60;;;22.60;52.50;;;;;;4934089;28;20036;-68
2023/07/27 02:58:54;;;;;;;4.05;2.25;;;22.70;53.10;;;;;;4941502;28;20052;-69
2023/07/27 03:01:21;;;;;;;8.30;2.17;;;22.80;52.50;;;;;;4949588;28;20027;-68
2023/07/27 03:03:49;;;;;;;8.60;2.97;;;22.90;52.00;;;;;;4949081;28;20031;-69
2023/07/27 03:06:17;;;;;;;8.07;3.00;;;22.80;52.80;;;;;;4951366;28;20126;-68
2023/07/27 03:08:44;;;;;;;5.30;2.35;;;22.70;52.60;;;;;;4941115;28;20031;-69
2023/07/27 03:11:11;;;;;;;6.90;2.35;;;22.80;52.10;;;;;;4949153;28;20043;-69
2023/07/27 03:13:39;;;;;;;4.60;2.25;;;22.90;51.50;;;;;;4950828;28;20039;-69
2023/07/27 03:16:06;;;;;;;7.40;2.47;;;22.70;52.00;;;;;;4947653;28;20039;-70
2023/07/27 03:18:34;;;;;;;10.35;2.38;;;22.80;52.30;;;;;;4951078;28;20062;-70
2023/07/27 03:21:06;;;;;;;14.73;2.70;;;23.10;52.00;;;;;;4948482;28;20034;-70
2023/07/27 03:23:33;;;;;;;4.80;2.08;;;23.30;52.50;;;;;;4942256;28;20031;-70
2023/07/27 03:26:01;;;;;;;10.02;2.30;;;23.40;51.30;;;;;;4929173;28;20038;-70
2023/07/27 03:28:28;;;;;;;7.68;2.10;;;22.80;51.50;;;;;;4950680;28;20031;-71
2023/07/27 03:30:55;;;;;;;6.50;2.03;;;22.50;52.50;;;;;;4933726;28;20043;-70
2023/07/27 03:33:23;;;;;;;5.53;1.92;;;22.60;53.10;;;;;;4948131;28;20485;-70
2023/07/27 03:35:50;;;;;;;4.95;2.40;;;22.60;53.20;;;;;;4948068;28;20031;-70
2023/07/27 03:38:17;;;;;;;4.47;2.20;;;22.40;52.80;;;;;;4935053;28;20397;-69
2023/07/27 03:40:45;;;;;;;5.22;2.47;;;21.90;53.00;;;;;;4942201;28;20363;-69
2023/07/27 03:43:12;;;;;;;4.22;1.98;;;21.50;55.00;;;;;;4945089;28;20066;-69
2023/07/27 03:45:40;;;;;;;3.63;2.00;;;21.30;55.00;;;;;;4949913;28;22658;-71
2023/07/27 03:48:08;;;;;;;8.45;1.65;;;21.40;55.20;;;;;;4940567;28;20572;-70
2023/07/27 03:50:35;;;;;;;4.93;2.10;;;21.30;55.00;;;;;;4952098;28;20110;-69
2023/07/27 03:53:02;;;;;;;4.88;1.80;;;21.10;55.00;;;;;;4947771;28;20137;-69
2023/07/27 03:55:30;;;;;;;5.00;1.50;;;21.00;55.40;;;;;;4943207;28;20322;-69
2023/07/27 03:57:57;;;;;;;3.05;1.95;;;21.10;55.10;;;;;;4933845;28;22266;-69
2023/07/27 04:00:24;;;;;;;3.25;1.48;;;20.90;55.40;;;;;;4938368;28;20038;-69
2023/07/27 04:02:52;;;;;;;3.58;1.40;;;20.70;55.70;;;;;;4942659;28;20027;-70
2023/07/27 04:05:19;;;;;;;2.65;1.23;;;20.50;55.90;;;;;;4945017;28;20079;-68
2023/07/27 04:07:51;;;;;;;3.28;1.50;;;20.50;56.50;;;;;;4930053;28;20436;-69
2023/07/27 04:10:19;;;;;;;3.80;1.60;;;20.60;55.40;;;;;;4935668;28;20029;-70
2023/07/27 04:12:46;;;;;;;7.22;1.48;;;20.60;55.80;;;;;;4957962;28;20086;-70
2023/07/27 04:15:14;;;;;;;4.95;1.20;;;20.60;56.00;;;;;;4942098;28;20045;-69
2023/07/27 04:17:41;;;;;;;4.30;1.60;;;20.60;55.40;;;;;;4946073;28;20046;-70
2023/07/27 04:20:09;;;;;;;5.05;1.27;;;20.60;56.30;;;;;;4947666;28;20061;-70
2023/07/27 04:22:36;;;;;;;3.95;1.42;;;20.70;55.80;;;;;;4945618;28;20031;-70
2023/07/27 04:25:04;;;;;;;3.03;1.50;;;20.70;55.90;;;;;;4947290;28;21249;-70
2023/07/27 04:27:31;;;;;;;3.10;1.30;;;20.60;55.90;;;;;;4949173;28;20067;-70
2023/07/27 04:29:59;;;;;;;3.30;1.48;;;20.40;56.50;;;;;;4943216;28;20062;-70
2023/07/27 04:32:26;;;;;;;3.30;1.40;;;20.60;55.40;;;;;;4931083;28;20394;-70
2023/07/27 04:34:53;;;;;;;2.45;1.30;;;20.40;55.90;;;;;;4943899;28;20066;-70
2023/07/27 04:37:21;;;;;;;4.50;1.70;;;20.50;56.50;;;;;;4951605;28;20039;-70
2023/07/27 04:39:49;;;;;;;3.58;1.40;;;20.60;55.70;;;;;;4942256;28;20087;-70
2023/07/27 04:42:16;;;;;;;2.78;1.42;;;20.50;56.30;;;;;;4947622;28;20042;-70
2023/07/27 04:44:43;;;;;;;3.22;1.42;;;20.50;56.50;;;;;;4945056;28;20121;-69
2023/07/27 04:47:11;;;;;;;3.97;1.50;;;20.50;56.20;;;;;;4936481;28;20055;-70
2023/07/27 04:49:38;;;;;;;4.65;1.42;;;20.40;56.50;;;;;;4943092;28;20023;-69
2023/07/27 04:52:06;;;;;;;2.83;1.27;;;20.30;56.20;;;;;;4938085;28;20035;-71
2023/07/27 04:54:33;;;;;;;5.55;1.90;;;20.30;56.10;;;;;;4943679;28;20114;-70
2023/07/27 04:57:01;;;;;;;5.43;1.45;;;20.30;56.70;;;;;;4943784;28;20074;-70
2023/07/27 04:59:28;;;;;;;5.43;1.45;;;20.30;57.00;;;;;;4945348;28;20124;-69
2023/07/27 05:01:55;;;;;;;2.88;1.75;;;20.20;56.60;;;;;;4948565;28;20090;-69
2023/07/27 05:04:23;;;;;;;3.60;1.27;;;20.30;56.90;;;;;;4940520;28;20027;-68
2023/07/27 05:06:50;;;;;;;3.58;1.40;;;20.20;56.80;;;;;;4950227;28;20057;-69
2023/07/27 05:09:18;;;;;;;3.72;1.55;;;20.10;57.00;;;;;;4956314;28;20510;-69
2023/07/27 05:11:45;;;;;;;5.00;1.48;;;20.10;57.00;;;;;;4946558;28;20033;-69
2023/07/27 05:14:12;;;;;;;3.33;1.17;;;20.10;57.40;;;;;;4940663;28;20032;-70
2023/07/27 05:16:40;;;;;;;2.38;1.38;;;20.10;57.60;;;;;;4943512;28;20977;-70
2023/07/27 05:19:07;;;;;;;3.75;1.50;;;20.00;57.20;;;;;;4935931;28;20054;-70
2023/07/27 05:21:34;;;;;;;3.90;1.30;;;20.20;57.00;;;;;;4971349;28;20040;-70
2023/07/27 05:24:05;;;;;;;4.28;1.30;;;20.30;57.00;;;;;;4937081;28;20121;-70
2023/07/27 05:26:33;;;;;;;3.45;1.40;;;20.20;57.00;;;;;;4938269;28;20069;-69
2023/07/27 05:29:05;;;;;;;4.75;1.23;;;20.30;56.70;;;;;;4932671;28;20469;-69
2023/07/27 05:31:32;;;;;;;5.00;1.30;;;20.10;56.50;;;;;;4964990;28;20082;-69
2023/07/27 05:34:00;;;;;;;3.60;1.10;;;20.20;57.00;;;;;;4944611;28;20027;-69
2023/07/27 05:36:27;;;;;;;4.63;1.38;;;20.20;56.90;;;;;;4963610;28;20121;-69
2023/07/27 05:38:55;;;;;;;7.53;1.42;;;20.20;56.70;;;;;;4929516;28;20523;-69
2023/07/27 05:41:23;;;;;;;4.63;1.05;;;20.20;56.50;;;;;;4942357;28;20397;-69
2023/07/27 05:43:50;;;;;;;4.55;1.30;;;20.30;56.50;;;;;;4944240;28;20085;-69
2023/07/27 05:46:17;;;;;;;5.32;1.13;;;20.30;56.30;;;;;;4946361;28;20023;-69
2023/07/27 05:48:44;;;;;;;5.18;1.25;;;20.30;56.20;;;;;;4939900;28;20113;-69
2023/07/27 05:51:12;;;;;;;5.85;1.30;;;20.20;56.70;;;;;;4939111;28;20043;-68
2023/07/27 05:53:39;;;;;;;6.68;1.05;;;20.20;56.30;;;;;;4944010;28;20034;-69
2023/07/27 05:56:07;;;;;;;2.10;1.17;;;20.30;56.30;;;;;;4945099;28;20031;-72
2023/07/27 05:58:34;;;;;;;7.30;1.15;;;20.30;56.20;;;;;;4931456;28;20512;-69
2023/07/27 06:01:05;;;;;;;2.55;1.10;;;20.50;55.90;;;;;;4950423;28;20030;-68
2023/07/27 06:03:33;;;;;;;5.70;1.10;;;20.50;56.10;;;;;;4941893;28;20031;-69
2023/07/27 06:06:00;;;;;;;2.38;1.20;;;20.70;56.00;;;;;;4934569;28;20051;-70
2023/07/27 06:08:28;;;;;;;4.53;1.05;;;20.80;56.00;;;;;;4938431;28;20501;-70
2023/07/27 06:11:04;;;;;;;6.60;1.15;;;20.70;56.20;;;;;;4947002;28;20029;-70
2023/07/27 06:13:32;;;;;;;2.92;1.17;;;20.80;56.20;;;;;;4944380;28;20023;-69
2023/07/27 06:16:00;;;;;;;3.50;1.25;;;20.80;56.10;;;;;;4953192;28;20087;-70
2023/07/27 06:18:27;;;;;;;2.45;1.10;;;20.90;56.00;;;;;;4948951;28;20509;-69
2023/07/27 06:20:55;;;;;;;4.90;0.80;;;20.80;55.90;;;;;;4965974;28;20042;-70
2023/07/27 06:23:22;;;;;;;2.17;0.88;;;20.90;55.90;;;;;;4942284;28;20388;-69
2023/07/27 06:25:49;;;;;;;1.50;0.95;;;20.90;55.80;;;;;;4952586;28;20137;-70
2023/07/27 06:28:17;;;;;;;2.90;1.20;;;20.90;55.80;;;;;;4946242;28;20329;-69
2023/07/27 06:30:45;;;;;;;5.90;1.25;;;20.80;55.50;;;;;;4935106;28;20460;-69
2023/07/27 06:33:14;;;;;;;3.88;1.40;;;20.90;55.10;;;;;;4939659;28;20045;-69
2023/07/27 06:35:41;;;;;;;4.10;1.48;;;20.80;55.70;;;;;;4946786;28;20126;-70
2023/07/27 06:38:09;;;;;;;1.70;1.02;;;20.70;56.00;;;;;;4947427;28;20082;-69
2023/07/27 06:40:36;;;;;;;2.95;1.10;;;20.80;56.30;;;;;;4952642;28;20031;-70
2023/07/27 06:43:03;;;;;;;3.53;1.30;;;20.60;55.30;;;;;;4937913;28;20043;-69
2023/07/27 06:45:31;;;;;;;4.65;2.40;;;20.50;56.10;;;;;;4957562;28;20111;-70
2023/07/27 06:47:58;;;;;;;5.40;2.10;;;20.30;56.50;;;;;;4942714;28;20027;-71
2023/07/27 06:50:26;;;;;;;5.07;2.22;;;20.10;57.10;;;;;;4956921;28;20057;-70
2023/07/27 06:52:54;;;;;;;4.28;2.20;;;20.00;58.10;;;;;;4948550;28;20465;-69
2023/07/27 06:55:21;;;;;;;5.07;1.85;;;19.80;58.50;;;;;;4936659;28;20074;-69
2023/07/27 06:57:49;;;;;;;2.88;1.70;;;19.70;58.40;;;;;;4937908;28;20405;-69
2023/07/27 07:00:17;;;;;;;4.25;1.95;;;19.60;58.90;;;;;;4946200;28;20038;-69
2023/07/27 07:02:44;;;;;;;4.93;1.60;;;19.40;59.90;;;;;;4950781;28;20020;-70
2023/07/27 07:05:12;;;;;;;4.22;1.48;;;19.20;60.40;;;;;;4951671;28;20031;-70
2023/07/27 07:07:39;;;;;;;8.05;1.92;;;19.10;60.40;;;;;;4924547;28;20725;-69
2023/07/27 07:10:10;;;;;;;2.78;1.13;;;18.90;61.90;;;;;;4938913;28;20393;-70
2023/07/27 07:12:38;;;;;;;5.47;1.50;;;18.70;61.70;;;;;;4943386;28;20487;-70
2023/07/27 07:15:06;;;;;;;6.22;1.30;;;18.50;62.30;;;;;;4939408;28;20130;-71
2023/07/27 07:17:34;;;;;;;5.50;1.63;;;18.30;63.00;;;;;;4932303;28;20408;-70
2023/07/27 07:20:04;;;;;;;6.03;1.27;;;18.10;63.70;;;;;;4949703;28;20401;-70
2023/07/27 07:22:32;;;;;;;5.40;1.65;;;17.90;64.20;;;;;;4948508;28;20329;-70
2023/07/27 07:25:00;;;;;;;6.60;2.10;;;17.80;65.00;;;;;;4947912;28;20039;-70
2023/07/27 07:27:28;;;;;;;5.15;1.40;;;17.70;65.60;;;;;;4938294;28;20031;-71
2023/07/27 07:29:55;;;;;;;3.75;1.27;;;17.70;65.90;;;;;;4944486;28;20377;-70
2023/07/27 07:32:23;;;;;;;3.03;1.38;;;17.60;66.30;;;;;;4943843;28;20054;-74
2023/07/27 07:34:54;;;;;;;4.82;1.38;;;17.50;66.50;;;;;;4954727;28;20058;-70
2023/07/27 07:37:22;;;;;;;3.22;1.67;;;17.40;66.90;;;;;;4937454;28;20102;-71
2023/07/27 07:39:49;;;;;;;2.90;1.50;;;17.30;67.60;;;;;;4943823;28;20069;-70
2023/07/27 07:42:16;;;;;;;6.47;1.50;;;17.20;68.00;;;;;;4949653;28;20039;-70
2023/07/27 07:44:46;;;;;;;7.05;1.35;;;17.10;68.90;;;;;;4948141;28;20030;-69
2023/07/27 07:47:13;;;;;;;3.15;1.30;;;16.90;69.20;;;;;;4941617;28;20090;-70
2023/07/27 07:49:41;;;;;;;6.20;2.15;;;16.70;69.90;;;;;;4971363;28;20134;-69
2023/07/27 07:52:08;;;;;;;3.85;1.50;;;16.60;70.80;;;;;;4926324;28;20114;-71
2023/07/27 07:54:36;;;;;;;6.80;1.77;;;16.50;71.60;;;;;;4958968;28;20031;-71
2023/07/27 07:57:03;;;;;;;2.65;1.40;;;16.30;71.90;;;;;;4961574;28;20070;-69
2023/07/27 07:59:31;;;;;;;4.78;2.08;;;16.20;72.10;;;;;;4946250;28;20039;-70
2023/07/27 08:01:58;;;;;;;7.78;1.75;;;16.10;72.90;;;;;;4946893;28;20027;-71
2023/07/27 08:04:26;;;;;;;6.07;1.73;;;16.00;74.00;;;;;;4931595;28;20038;-70
2023/07/27 08:06:53;;;;;;;5.60;1.95;;;16.00;74.10;;;;;;4947105;28;20027;-69
2023/07/27 08:09:21;;;;;;;5.30;2.03;;;15.80;74.40;;;;;;4946993;28;20062;-70
2023/07/27 08:11:48;;;;;;;3.85;1.98;;;15.70;75.00;;;;;;4942947;28;20808;-72
2023/07/27 08:14:16;;;;;;;3.22;1.75;;;15.60;75.70;;;;;;4938784;28;20094;-70
2023/07/27 08:16:44;;;;;;;6.85;2.55;;;15.50;76.00;;;;;;4939764;28;20031;-69
2023/07/27 08:19:11;;;;;;;3.20;1.90;;;15.40;76.80;;;;;;4949067;28;20129;-70
2023/07/27 08:21:39;;;;;;;3.47;2.10;;;15.40;77.10;;;;;;4949031;28;20050;-71
2023/07/27 08:24:09;;;;;;;3.35;2.05;;;15.30;77.30;;;;;;4945816;28;20106;-71
2023/07/27 08:26:36;;;;;;;7.32;2.83;;;15.20;78.00;;;;;;4947291;28;20035;-71
2023/07/27 08:29:04;;;;;;;6.25;2.67;;;15.10;78.80;;;;;;4939923;28;20054;-70
2023/07/27 08:31:31;;;;;;;6.20;2.83;;;15.10;79.10;;;;;;4949438;28;20035;-69
2023/07/27 08:33:59;;;;;;;5.47;2.60;;;15.00;79.40;;;;;;4944254;28;20385;-70
2023/07/27 08:36:26;;;;;;;7.68;3.30;;;14.80;80.00;;;;;;4948571;28;20654;-69
2023/07/27 08:38:53;;;;;;;10.52;3.10;;;14.70;80.50;;;;;;4945326;28;20125;-70
2023/07/27 08:41:21;;;;;;;15.32;3.50;;;14.70;80.90;;;;;;4949524;28;20473;-69
2023/07/27 08:43:50;;;;;;;17.98;4.88;;;14.60;81.30;;;;;;4944971;28;20094;-71
2023/07/27 08:46:19;;;;;;;23.52;4.78;;;14.60;81.40;;;;;;4939686;28;20023;-71
2023/07/27 08:48:49;;;;;;;15.85;4.25;;;14.60;81.60;;;;;;4934473;28;20031;-68
2023/07/27 08:51:16;;;;;;;20.38;5.00;;;14.60;82.30;;;;;;4948849;28;20042;-69
2023/07/27 08:53:44;;;;;;;19.23;4.93;;;14.50;82.50;;;;;;4950816;28;20028;-69
2023/07/27 08:56:11;;;;;;;12.77;4.50;;;14.50;82.70;;;;;;4946585;28;20786;-69
2023/07/27 08:58:38;;;;;;;16.63;5.03;;;14.30;83.20;;;;;;4965844;28;20051;-70
2023/07/27 09:01:06;;;;;;;15.05;4.63;;;14.30;83.40;;;;;;4943053;28;20127;-69
2023/07/27 09:03:33;;;;;;;20.80;4.65;;;14.20;83.80;;;;;;4950519;28;20031;-70
2023/07/27 09:06:03;;;;;;;16.65;5.03;;;14.10;84.20;;;;;;4947860;28;20053;-70
2023/07/27 09:08:31;;;;;;;22.90;5.10;;;14.00;84.40;;;;;;4939747;28;20066;-70
2023/07/27 09:11:10;;;;;;;21.92;4.70;;;14.00;84.80;;;;;;4948894;28;20029;-70
2023/07/27 09:13:38;;;;;;;15.00;3.97;;;13.90;85.10;;;;;;4947657;28;20477;-70
2023/07/27 09:16:08;;;;;;;24.55;4.57;;;13.90;85.00;;;;;;4948248;28;20040;-70
2023/07/27 09:18:36;;;;;;;23.50;6.28;;;13.90;85.50;;;;;;4938110;28;20039;-69
2023/07/27 09:21:10;;;;;;;24.63;8.70;;;13.90;85.60;;;;;;4946527;28;20027;-70
2023/07/27 09:23:38;;;;;;;18.73;8.15;;;13.80;85.90;;;;;;4951332;28;20042;-69
2023/07/27 09:26:06;;;;;;;19.88;8.23;;;13.80;86.30;;;;;;4942724;28;20039;-69
2023/07/27 09:28:34;;;;;;;28.88;9.73;;;13.70;86.50;;;;;;4942485;28;20119;-70
2023/07/27 09:31:03;;;;;;;31.50;9.80;;;13.70;86.70;;;;;;4941604;28;20016;-69
2023/07/27 09:33:30;;;;;;;29.60;8.55;;;13.60;86.80;;;;;;4949066;28;20516;-70
2023/07/27 09:35:58;;;;;;;22.38;7.53;;;13.70;87.20;;;;;;4938816;28;20085;-69
2023/07/27 09:38:29;;;;;;;26.13;7.53;;;13.70;86.90;;;;;;4963913;28;20039;-69
2023/07/27 09:40:56;;;;;;;19.13;6.47;;;13.70;87.10;;;;;;4936180;28;20069;-71
2023/07/27 09:43:24;;;;;;;24.10;6.75;;;13.70;87.10;;;;;;4945702;28;20062;-68
2023/07/27 09:46:00;;;;;;;14.35;6.35;;;13.60;87.00;;;;;;4944176;28;20027;-69
2023/07/27 09:48:29;;;;;;;20.75;7.40;;;13.40;87.90;;;;;;4937273;28;20046;-69
2023/07/27 09:50:59;;;;;;;17.75;7.22;;;13.30;88.30;;;;;;4940483;28;20485;-71
2023/07/27 09:53:32;;;;;;;22.10;7.22;;;13.30;88.40;;;;;;4943322;28;20082;-71
2023/07/27 09:56:00;;;;;;;24.45;7.18;;;13.20;88.60;;;;;;4945738;28;20114;-70
2023/07/27 09:58:29;;;;;;;21.27;7.30;;;13.00;89.20;;;;;;4946753;28;20513;-68
2023/07/27 10:00:58;;;;;;;28.85;8.07;;;12.80;90.00;;;;;;4949201;28;20469;-69
2023/07/27 10:03:25;;;;;;;27.92;7.10;;;12.70;90.30;;;;;;4943464;28;20078;-70
2023/07/27 10:05:53;;;;;;;21.42;7.68;;;12.60;90.50;;;;;;4940458;28;20039;-70
2023/07/27 10:08:20;;;;;;;16.60;6.43;;;12.50;90.80;;;;;;4940494;28;20485;-70
2023/07/27 10:11:28;;;;;;;17.85;7.10;;;12.50;90.90;;;;;;4942092;28;20031;-72
2023/07/27 10:13:57;;;;;;;15.98;6.38;;;12.40;90.90;;;;;;4927974;28;20066;-69
2023/07/27 10:16:28;;;;;;;13.00;6.00;;;12.40;91.10;;;;;;4948627;28;21023;-70
2023/07/27 10:18:56;;;;;;;14.18;6.63;;;12.40;91.20;;;;;;4944792;28;20125;-70
2023/07/27 10:21:30;;;;;;;15.05;6.90;;;12.30;91.20;;;;;;4936297;28;20066;-69
2023/07/27 10:24:02;;;;;;;22.30;6.45;;;12.30;91.40;;;;;;4937457;28;20477;-69
2023/07/27 10:26:46;;;;;;;23.70;6.88;;;12.20;91.30;;;;;;4946223;28;20106;-68
2023/07/27 10:29:16;;;;;;;17.27;7.45;;;12.20;91.70;;;;;;4955625;28;20035;-70
2023/07/27 10:32:08;;;;;;;16.02;6.20;;;12.10;91.80;;;;;;4946622;28;20066;-70
2023/07/27 10:34:37;;;;;;;19.33;7.45;;;12.10;91.70;;;;;;4944838;28;20049;-68
2023/07/27 10:37:08;;;;;;;14.85;6.38;;;12.10;92.30;;;;;;4947857;28;20114;-69
2023/07/27 10:39:47;;;;;;;16.02;6.68;;;12.10;92.50;;;;;;4947395;28;20159;-66
2023/07/27 10:42:25;;;;;;;14.55;6.57;;;12.00;92.20;;;;;;4946491;28;20043;-69
2023/07/27 10:44:58;;;;;;;18.55;6.95;;;12.00;93.10;;;;;;4946766;28;20050;-69
2023/07/27 10:47:37;;;;;;;14.57;7.68;;;12.00;92.90;;;;;;4949712;28;20030;-68
2023/07/27 10:50:05;;;;;;;15.95;6.88;;;12.00;93.60;;;;;;4951328;28;20046;-69
2023/07/27 10:52:39;;;;;;;16.45;7.40;;;11.90;93.40;;;;;;4950240;28;20031;-69
2023/07/27 10:55:07;;;;;;;16.42;6.85;;;11.80;93.50;;;;;;4955043;28;20524;-69
2023/07/27 10:57:35;;;;;;;13.60;7.68;;;11.80;93.90;;;;;;4936635;28;20063;-69
2023/07/27 11:00:04;;;;;;;15.23;7.65;;;11.70;93.70;;;;;;4938260;28;20031;-70
2023/07/27 11:02:32;;;;;;;22.77;7.72;;;11.60;93.90;;;;;;4944869;28;20493;-69
2023/07/27 11:05:09;;;;;;;17.25;8.80;;;11.60;93.70;;;;;;4952296;28;20396;-70
2023/07/27 11:07:42;;;;;;;20.30;7.82;;;11.40;94.00;;;;;;4947390;28;20085;-70
2023/07/27 11:10:17;;;;;;;24.17;7.45;;;11.40;93.70;;;;;;4951014;28;20043;-71
2023/07/27 11:12:53;;;;;;;15.73;7.68;;;11.40;93.70;;;;;;4945880;28;20081;-69
2023/07/27 11:15:22;;;;;;;18.25;7.15;;;11.30;93.60;;;;;;4953071;28;20039;-70
2023/07/27 11:17:55;;;;;;;15.05;7.32;;;11.20;93.80;;;;;;4958008;28;20691;-69
2023/07/27 11:20:24;;;;;;;18.15;8.23;;;11.20;93.80;;;;;;4951880;28;20119;-69
2023/07/27 11:22:55;;;;;;;26.33;8.18;;;11.20;93.90;;;;;;4947142;28;20134;-70
2023/07/27 11:25:23;;;;;;;24.05;8.18;;;11.20;93.90;;;;;;4963083;28;20032;-70
2023/07/27 11:27:51;;;;;;;24.38;9.52;;;11.20;94.20;;;;;;4940631;28;20138;-70
2023/07/27 11:30:21;;;;;;;21.85;9.60;;;11.20;94.50;;;;;;4945980;28;20035;-69
2023/07/27 11:32:58;;;;;;;23.48;9.35;;;11.30;95.20;;;;;;4942320;28;20034;-70
2023/07/27 11:35:26;;;;;;;26.33;9.83;;;11.40;95.40;;;;;;4949648;28;20040;-69
2023/07/27 11:37:53;;;;;;;20.00;9.75;;;11.40;95.20;;;;;;4951275;28;20508;-69
2023/07/27 11:40:23;;;;;;;30.95;10.73;;;11.50;95.10;;;;;;4954675;28;20032;-70
2023/07/27 11:42:50;;;;;;;22.25;11.48;;;11.60;94.80;;;;;;4945847;28;20050;-69
2023/07/27 11:45:18;;;;;;;23.13;13.52;;;11.60;94.90;;;;;;4948035;28;20157;-69
2023/07/27 11:47:45;;;;;;;20.73;10.30;;;11.50;95.00;;;;;;4945431;28;20125;-70
2023/07/27 11:50:19;;;;;;;15.20;9.07;;;11.40;95.10;;;;;;4951201;28;20138;-70
2023/07/27 11:52:49;;;;;;;15.40;8.25;;;11.40;94.90;;;;;;4941196;28;20038;-70
2023/07/27 11:55:17;;;;;;;12.57;8.13;;;11.40;95.00;;;;;;4942919;28;20035;-69
2023/07/27 11:57:51;;;;;;;13.98;8.90;;;11.30;95.20;;;;;;4948679;28;20398;-70
2023/07/27 12:00:19;;;;;;;15.48;9.65;;;11.20;95.30;;;;;;4945145;28;20093;-70
2023/07/27 12:02:51;;;;;;;13.20;8.50;;;11.00;95.40;;;;;;4944524;28;20041;-71
2023/07/27 12:05:20;;;;;;;14.27;9.52;;;11.00;95.10;;;;;;4946772;28;20063;-69
2023/07/27 12:07:47;;;;;;;14.45;8.13;;;10.90;95.10;;;;;;4946278;28;20031;-69
2023/07/27 12:10:17;;;;;;;10.88;7.53;;;10.70;95.00;;;;;;4959521;28;20043;-70
2023/07/27 12:13:03;;;;;;;11.40;7.47;;;10.60;95.20;;;;;;4949893;28;20035;-68
2023/07/27 12:15:38;;;;;;;15.60;6.82;;;10.60;95.40;;;;;;4931227;28;20043;-69
2023/07/27 12:18:07;;;;;;;13.35;6.35;;;10.60;95.30;;;;;;4894030;28;20046;-72
2023/07/27 12:20:36;;;;;;;10.70;6.47;;;10.50;95.50;;;;;;4918263;28;20130;-70
2023/07/27 12:23:04;;;;;;;15.27;6.65;;;10.50;95.70;;;;;;4889596;28;20096;-72
2023/07/27 12:25:31;;;;;;;19.10;12.98;;;10.50;95.80;;;;;;4911216;28;20217;-71
2023/07/27 12:27:59;;;;;;;16.63;8.43;;;10.50;96.10;;;;;;4900961;28;20398;-69
2023/07/27 12:30:29;;;;;;;15.88;8.07;;;10.40;96.00;;;;;;4907207;28;20294;-72
2023/07/27 12:32:56;;;;;;;12.80;7.43;;;10.40;96.10;;;;;;4912095;28;20034;-71
2023/07/27 12:35:24;;;;;;;12.80;7.15;;;10.30;95.90;;;;;;4891923;28;20022;-69
2023/07/27 12:37:51;;;;;;;16.90;8.20;;;10.30;96.00;;;;;;4953498;28;20404;-69
2023/07/27 12:40:18;;;;;;;15.70;8.25;;;10.30;96.40;;;;;;4951092;28;20027;-69
2023/07/27 12:42:46;;;;;;;18.25;7.95;;;10.30;96.00;;;;;;4950913;28;20089;-69
2023/07/27 12:45:12;;;;;;;;;;;10.20;95.50;;;;;;4953628;28;20034;-69
2023/07/27 12:47:42;;;;;;;12.20;7.05;;;10.10;95.20;;;;;;4948686;28;20359;-70
2023/07/27 12:50:10;;;;;;;12.90;7.00;;;10.00;95.10;;;;;;4944272;28;20121;-69
2023/07/27 12:52:38;;;;;;;13.98;8.18;;;9.90;95.10;;;;;;4949776;28;20039;-68